Time;durP1;ratioP1;P1;durP2;ratioP2;P2;SDS_P1;SDS_P2;PMS_P1;PMS_P2;Temp;Humidity;BMP_temperature;BMP_pressure;BME280_temperature;BME280_humidity;BME280_pressure;Samples;Min_cycle;Max_cycle;Signal;HPM_P1;HPM_P2
2021/12/30 00:01:53;;;;;;;2.47;0.63;;;;;;;12.04;82.53;99175.47;4945575;28;20075;-51
2021/12/30 00:04:22;;;;;;;4.85;0.90;;;;;;;12.07;83.44;99166.78;4944746;28;20059;-51
2021/12/30 00:06:49;;;;;;;2.83;0.65;;;;;;;12.11;83.68;99177.94;4947808;28;20116;-52
2021/12/30 00:09:18;;;;;;;0.65;0.65;;;;;;;12.13;83.00;99190.00;4964603;28;20043;-55
2021/12/30 00:11:46;;;;;;;1.58;0.73;;;;;;;12.17;82.60;99198.56;4963577;28;20058;-55
2021/12/30 00:14:33;;;;;;;1.10;0.45;;;;;;;12.20;83.61;99185.53;4962826;28;20134;-52
2021/12/30 00:16:59;;;;;;;1.02;0.28;;;;;;;12.20;82.67;99203.69;4961546;28;20623;-51
2021/12/30 00:19:26;;;;;;;0.85;0.75;;;;;;;12.23;83.10;99188.06;4961266;28;20082;-55
2021/12/30 00:21:52;;;;;;;1.52;1.02;;;;;;;12.25;82.62;99191.47;4960446;28;20055;-56
2021/12/30 00:24:19;;;;;;;1.08;0.80;;;;;;;12.24;83.48;99194.97;4966765;28;20054;-52
2021/12/30 00:26:50;;;;;;;1.27;0.43;;;;;;;12.29;82.85;99194.84;4965148;28;20050;-52
2021/12/30 00:29:16;;;;;;;3.22;0.55;;;;;;;12.28;83.16;99201.78;4966395;28;20110;-51
2021/12/30 00:31:44;;;;;;;2.25;0.55;;;;;;;12.30;83.15;99193.97;4964901;28;20049;-56
2021/12/30 00:34:10;;;;;;;3.22;0.98;;;;;;;12.31;82.93;99196.53;4963482;28;20047;-57
2021/12/30 00:36:37;;;;;;;1.90;1.23;;;;;;;12.32;83.36;99197.34;4963302;28;20058;-58
2021/12/30 00:39:04;;;;;;;2.00;0.52;;;;;;;12.31;82.48;99186.13;4962243;28;20507;-51
2021/12/30 00:41:30;;;;;;;1.00;0.82;;;;;;;12.33;81.98;99179.16;4960025;28;20043;-51
2021/12/30 00:43:57;;;;;;;1.35;0.35;;;;;;;12.31;82.92;99180.06;4962409;28;20054;-57
2021/12/30 00:46:24;;;;;;;1.10;0.40;;;;;;;12.36;82.91;99177.38;4963496;28;20055;-56
2021/12/30 00:48:51;;;;;;;0.98;0.77;;;;;;;12.37;83.02;99189.47;4961420;28;20054;-54
2021/12/30 00:51:17;;;;;;;0.75;0.30;;;;;;;12.36;82.85;99173.03;4964581;28;20059;-51
2021/12/30 00:53:44;;;;;;;2.03;0.98;;;;;;;12.38;83.07;99183.38;4964095;28;20503;-56
2021/12/30 00:56:11;;;;;;;1.63;0.90;;;;;;;12.36;83.11;99193.78;4959898;28;20106;-53
2021/12/30 00:58:39;;;;;;;2.00;0.40;;;;;;;12.38;81.76;99180.78;4965084;28;20039;-52
2021/12/30 01:01:05;;;;;;;0.85;0.30;;;;;;;12.38;82.24;99183.38;4964098;28;20043;-55
2021/12/30 01:03:34;;;;;;;1.27;0.47;;;;;;;12.38;82.09;99185.97;4966968;28;20054;-51
2021/12/30 01:06:01;;;;;;;1.63;0.63;;;;;;;12.41;82.78;99180.72;4961836;28;20063;-52
2021/12/30 01:08:28;;;;;;;1.08;0.93;;;;;;;12.41;82.54;99196.28;4962584;28;20046;-52
2021/12/30 01:10:55;;;;;;;0.93;0.82;;;;;;;12.43;82.19;99197.13;4967943;28;20051;-54
2021/12/30 01:13:26;;;;;;;0.82;0.43;;;;;;;12.43;81.75;99184.13;4973153;28;20055;-55
2021/12/30 01:16:01;;;;;;;0.70;0.52;;;;;;;12.46;81.42;99190.09;4968339;28;20047;-53
2021/12/30 01:18:39;;;;;;;0.95;0.85;;;;;;;12.46;82.33;99186.63;4969247;28;20050;-53
2021/12/30 01:21:11;;;;;;;1.00;0.70;;;;;;;12.46;81.64;99192.69;4972720;28;20074;-51
2021/12/30 01:23:42;;;;;;;1.70;0.77;;;;;;;12.45;81.75;99192.72;4966638;28;20043;-52
2021/12/30 01:26:11;;;;;;;1.00;0.75;;;;;;;12.44;82.64;99180.63;4969505;28;20442;-56
2021/12/30 01:28:41;;;;;;;1.20;1.15;;;;;;;12.47;81.50;99190.97;4967759;28;20042;-54
2021/12/30 01:31:10;;;;;;;0.52;0.52;;;;;;;12.49;82.57;99186.56;4968757;28;20043;-53
2021/12/30 01:33:39;;;;;;;4.28;0.30;;;;;;;12.47;82.39;99180.56;4972465;28;20050;-52
2021/12/30 01:36:05;;;;;;;0.35;0.10;;;;;;;12.47;81.43;99180.56;4970855;28;20399;-54
2021/12/30 01:38:32;;;;;;;0.20;0.10;;;;;;;12.49;81.32;99183.13;4970207;28;20102;-53
2021/12/30 01:41:01;;;;;;;0.38;0.32;;;;;;;12.51;82.73;99186.53;4965762;28;20086;-51
2021/12/30 01:43:28;;;;;;;0.30;0.28;;;;;;;12.51;82.09;99187.41;4969340;28;20058;-50
2021/12/30 01:45:55;;;;;;;1.08;0.40;;;;;;;12.55;81.49;99188.16;4972326;28;20117;-57
2021/12/30 01:48:22;;;;;;;1.02;0.55;;;;;;;12.52;82.20;99189.09;4971027;28;20050;-53
2021/12/30 01:50:49;;;;;;;1.40;1.38;;;;;;;12.53;82.31;99201.19;4970806;28;20541;-50
2021/12/30 01:53:16;;;;;;;0.38;0.32;;;;;;;12.54;82.34;99192.53;4967113;28;20047;-53
2021/12/30 01:55:43;;;;;;;0.75;0.75;;;;;;;12.56;80.85;99208.03;4969146;28;20120;-53
2021/12/30 01:58:11;;;;;;;0.60;0.60;;;;;;;12.56;81.52;99205.44;4967793;28;20106;-55
2021/12/30 02:00:40;;;;;;;0.57;0.57;;;;;;;12.60;81.85;99201.91;4969149;28;20047;-56
2021/12/30 02:03:09;;;;;;;1.13;1.13;;;;;;;12.62;82.47;99204.44;4969960;28;20051;-52
2021/12/30 02:05:37;;;;;;;0.50;0.50;;;;;;;12.60;82.09;99202.75;4967875;28;20383;-57
2021/12/30 02:08:06;;;;;;;0.45;0.40;;;;;;;12.63;82.05;99216.56;4966226;28;20109;-52
2021/12/30 02:10:33;;;;;;;0.43;0.35;;;;;;;12.65;80.89;99209.56;4966367;28;20467;-50
2021/12/30 02:13:01;;;;;;;0.20;0.13;;;;;;;12.67;81.33;99197.41;4971062;28;20462;-50
2021/12/30 02:15:27;;;;;;;0.40;0.40;;;;;;;12.66;81.59;99208.69;4966005;28;20051;-52
2021/12/30 02:17:54;;;;;;;0.70;0.70;;;;;;;12.67;81.79;99211.22;4969358;28;20046;-55
2021/12/30 02:20:45;;;;;;;1.17;0.73;;;;;;;12.66;81.41;99226.88;4968318;28;20105;-51
2021/12/30 02:23:14;;;;;;;0.20;0.20;;;;;;;12.72;82.22;99242.31;4966916;28;20487;-55
2021/12/30 02:25:41;;;;;;;0.85;0.85;;;;;;;12.73;80.99;99236.19;4971764;28;20054;-55
2021/12/30 02:28:10;;;;;;;0.38;0.35;;;;;;;12.75;82.41;99241.38;4968140;28;20105;-54
2021/12/30 02:30:38;;;;;;;0.55;0.52;;;;;;;12.74;81.58;99235.34;4968318;28;20043;-58
2021/12/30 02:33:05;;;;;;;0.43;0.35;;;;;;;12.71;82.47;99246.63;4967621;28;20085;-50
2021/12/30 02:35:33;;;;;;;0.60;0.60;;;;;;;12.73;81.75;99241.41;4966390;28;20632;-49
2021/12/30 02:38:00;;;;;;;0.50;0.30;;;;;;;12.70;83.04;99238.91;4968983;28;20443;-55
2021/12/30 02:40:32;;;;;;;0.75;0.75;;;;;;;12.69;82.64;99242.38;4969080;28;20121;-56
2021/12/30 02:43:00;;;;;;;1.58;0.47;;;;;;;12.69;82.13;99244.97;4979897;28;20055;-50
2021/12/30 02:45:27;;;;;;;0.63;0.63;;;;;;;12.69;81.86;99240.63;4968745;28;20074;-55
2021/12/30 02:47:53;;;;;;;0.80;0.57;;;;;;;12.72;82.71;99242.31;4967510;28;20073;-52
2021/12/30 02:50:20;;;;;;;0.80;0.68;;;;;;;12.71;82.27;99246.63;4968012;28;20102;-57
2021/12/30 02:52:47;;;;;;;1.48;1.00;;;;;;;12.71;83.15;99240.59;4966330;28;20097;-52
2021/12/30 02:55:13;;;;;;;0.47;0.47;;;;;;;12.71;83.43;99245.78;4969983;28;20050;-53
2021/12/30 02:57:40;;;;;;;0.43;0.35;;;;;;;12.71;82.28;99246.63;4969171;28;20070;-57
2021/12/30 03:00:09;;;;;;;1.20;0.35;;;;;;;12.73;82.76;99257.00;4967075;28;20527;-55
2021/12/30 03:02:37;;;;;;;0.65;0.65;;;;;;;12.74;82.52;99253.53;4966369;28;20525;-54
2021/12/30 03:05:07;;;;;;;0.85;0.70;;;;;;;12.71;82.77;99262.22;4968223;28;20051;-54
2021/12/30 03:07:34;;;;;;;0.55;0.52;;;;;;;12.76;82.74;99253.50;4968050;28;20090;-54
2021/12/30 03:10:03;;;;;;;1.73;0.30;;;;;;;12.76;82.43;99254.31;4971321;28;20043;-55
2021/12/30 03:12:29;;;;;;;1.85;0.50;;;;;;;12.78;83.12;99255.16;4965164;28;20062;-53
2021/12/30 03:14:58;;;;;;;0.75;0.75;;;;;;;12.77;83.33;99250.81;4965729;28;20109;-59
2021/12/30 03:17:25;;;;;;;0.55;0.52;;;;;;;12.76;83.25;99249.13;4962894;28;20082;-54
2021/12/30 03:19:54;;;;;;;0.57;0.57;;;;;;;12.75;82.51;99244.81;4965159;28;20047;-52
2021/12/30 03:22:21;;;;;;;0.80;0.77;;;;;;;12.76;83.64;99254.31;4963218;28;20105;-54
2021/12/30 03:24:48;;;;;;;0.50;0.50;;;;;;;12.78;82.93;99249.09;4965721;28;20450;-57
2021/12/30 03:27:14;;;;;;;0.52;0.45;;;;;;;12.77;82.95;99250.81;4962405;28;20046;-55
2021/12/30 03:29:41;;;;;;;0.82;0.75;;;;;;;12.79;83.21;99246.47;4970002;28;20101;-55
2021/12/30 03:32:07;;;;;;;0.65;0.65;;;;;;;12.79;83.59;99251.66;4966786;28;20047;-50
2021/12/30 03:34:34;;;;;;;2.22;0.43;;;;;;;12.82;82.75;99246.38;4970282;28;20494;-52
2021/12/30 03:37:01;;;;;;;1.20;0.35;;;;;;;12.82;82.10;99248.97;4965787;28;20117;-57
2021/12/30 03:39:27;;;;;;;0.40;0.38;;;;;;;12.82;82.80;99243.78;4965055;28;20491;-52
2021/12/30 03:41:54;;;;;;;0.50;0.50;;;;;;;12.84;82.69;99254.97;4962661;28;20136;-51
2021/12/30 03:44:20;;;;;;;0.85;0.40;;;;;;;12.85;82.24;99253.25;4965006;28;20058;-54
2021/12/30 03:46:47;;;;;;;0.98;0.70;;;;;;;12.89;82.98;99247.06;4966235;28;20066;-54
2021/12/30 03:49:14;;;;;;;0.75;0.75;;;;;;;12.87;83.62;99251.44;4962468;28;20069;-51
2021/12/30 03:51:40;;;;;;;0.63;0.32;;;;;;;12.90;83.53;99258.34;4968261;28;20112;-53
2021/12/30 03:54:07;;;;;;;0.98;0.93;;;;;;;12.91;82.98;99231.44;4965080;28;20042;-56
2021/12/30 03:56:35;;;;;;;1.33;0.35;;;;;;;12.92;82.93;99240.94;4965161;28;20101;-55
2021/12/30 03:59:03;;;;;;;1.05;0.95;;;;;;;12.92;82.76;99238.34;4962959;28;20046;-55
2021/12/30 04:01:30;;;;;;;0.90;0.90;;;;;;;12.94;82.22;99249.56;4963291;28;20055;-53
2021/12/30 04:03:57;;;;;;;0.70;0.70;;;;;;;12.95;82.77;99253.88;4966360;28;20190;-53
2021/12/30 04:06:27;;;;;;;0.40;0.10;;;;;;;12.98;81.88;99253.78;4961881;28;20059;-51
2021/12/30 04:08:55;;;;;;;0.80;0.77;;;;;;;12.97;82.50;99252.09;4964952;28;20051;-55
2021/12/30 04:11:24;;;;;;;0.77;0.77;;;;;;;12.97;82.67;99257.28;4964614;28;20058;-54
2021/12/30 04:13:51;;;;;;;0.93;0.65;;;;;;;12.99;81.72;99250.28;4966379;28;20047;-53
2021/12/30 04:16:20;;;;;;;0.63;0.63;;;;;;;13.00;82.55;99252.00;4961030;28;20051;-51
2021/12/30 04:18:48;;;;;;;1.45;0.57;;;;;;;13.02;82.29;99246.75;4966408;28;20097;-54
2021/12/30 04:21:18;;;;;;;0.35;0.25;;;;;;;12.96;82.16;99256.44;4962882;28;20046;-51
2021/12/30 04:23:45;;;;;;;0.95;0.35;;;;;;;12.96;81.10;99255.56;4964133;28;20042;-53
2021/12/30 04:26:14;;;;;;;1.50;0.73;;;;;;;13.00;81.12;99262.38;4963494;28;20193;-51
2021/12/30 04:28:40;;;;;;;0.60;0.60;;;;;;;12.99;80.80;99255.50;4963670;28;20059;-56
2021/12/30 04:31:08;;;;;;;0.52;0.52;;;;;;;12.98;80.54;99249.44;4961699;28;20049;-52
2021/12/30 04:33:35;;;;;;;0.32;0.28;;;;;;;12.97;81.10;99252.09;4967926;28;20098;-54
2021/12/30 04:36:02;;;;;;;0.80;0.30;;;;;;;12.97;80.65;99226.09;4964735;28;20051;-55
2021/12/30 04:38:31;;;;;;;0.63;0.63;;;;;;;12.96;81.69;99234.78;4964568;28;20117;-50
2021/12/30 04:40:58;;;;;;;1.77;0.90;;;;;;;12.94;81.30;99233.97;4967854;28;20109;-54
2021/12/30 04:43:25;;;;;;;1.95;0.82;;;;;;;12.92;81.21;99228.81;4965610;28;20113;-51
2021/12/30 04:45:52;;;;;;;0.50;0.50;;;;;;;12.95;81.09;99223.53;4962329;28;20078;-51
2021/12/30 04:48:21;;;;;;;0.43;0.35;;;;;;;12.90;80.95;99215.00;4961227;28;20093;-53
2021/12/30 04:50:48;;;;;;;0.77;0.45;;;;;;;12.90;80.46;99217.59;4967138;28;20046;-53
2021/12/30 04:53:16;;;;;;;1.40;0.88;;;;;;;12.90;80.63;99225.38;4966686;28;20427;-52
2021/12/30 04:55:43;;;;;;;0.60;0.30;;;;;;;12.89;81.36;99222.81;4965333;28;20054;-52
2021/12/30 04:58:10;;;;;;;1.17;0.90;;;;;;;12.90;81.08;99220.19;4964582;28;20108;-56
2021/12/30 05:00:37;;;;;;;2.60;0.52;;;;;;;12.92;81.72;99209.75;4961520;28;20721;-55
2021/12/30 05:03:13;;;;;;;0.82;0.63;;;;;;;12.90;80.42;99224.56;4968004;28;20604;-52
2021/12/30 05:05:45;;;;;;;2.53;0.70;;;;;;;12.90;80.54;99224.56;4966562;28;20537;-50
2021/12/30 05:08:14;;;;;;;2.22;0.75;;;;;;;12.92;81.68;99227.94;4967348;28;20051;-50
2021/12/30 05:10:41;;;;;;;2.15;0.47;;;;;;;12.95;80.58;99233.06;4964350;28;20137;-54
2021/12/30 05:13:08;;;;;;;1.50;0.60;;;;;;;12.94;81.04;99242.59;4968709;28;20050;-54
2021/12/30 05:15:36;;;;;;;2.40;0.52;;;;;;;12.96;81.31;99245.16;4961272;28;20056;-55
2021/12/30 05:18:05;;;;;;;2.97;1.00;;;;;;;12.95;81.08;99235.69;4962741;28;20146;-53
2021/12/30 05:20:32;;;;;;;4.80;0.93;;;;;;;12.95;80.93;99269.47;4965471;28;20195;-52
2021/12/30 05:22:58;;;;;;;2.33;0.52;;;;;;;12.98;80.75;99264.19;4962167;28;20109;-56
2021/12/30 05:25:26;;;;;;;3.15;0.82;;;;;;;12.98;80.92;99259.00;4962954;28;20487;-56
2021/12/30 05:27:53;;;;;;;4.10;0.73;;;;;;;12.98;80.30;99272.00;4963442;28;20051;-58
2021/12/30 05:30:22;;;;;;;2.20;0.43;;;;;;;12.98;80.32;99279.78;4965774;28;20678;-52
2021/12/30 05:32:50;;;;;;;5.00;0.90;;;;;;;12.98;80.42;99285.00;4965596;28;20047;-48
2021/12/30 05:35:17;;;;;;;2.38;0.82;;;;;;;12.98;79.94;99295.38;4959728;28;20109;-52
2021/12/30 05:37:44;;;;;;;2.50;1.17;;;;;;;12.99;80.26;99281.47;4967012;28;20050;-57
2021/12/30 05:40:14;;;;;;;4.15;0.77;;;;;;;13.01;80.76;99269.31;4966944;28;20051;-52
2021/12/30 05:42:41;;;;;;;2.47;0.88;;;;;;;13.00;80.11;99277.16;4962228;28;20054;-56
2021/12/30 05:45:11;;;;;;;2.88;1.02;;;;;;;13.01;79.97;99269.31;4966479;28;20691;-54
2021/12/30 05:47:38;;;;;;;4.07;1.52;;;;;;;12.99;80.75;99281.47;4968074;28;20051;-53
2021/12/30 05:50:07;;;;;;;4.13;0.88;;;;;;;13.00;81.06;99272.78;4972000;28;20442;-60
2021/12/30 05:52:36;;;;;;;6.88;1.40;;;;;;;13.01;79.45;99269.31;4970481;28;20051;-52
2021/12/30 05:55:05;;;;;;;5.53;0.85;;;;;;;13.03;80.30;99274.47;4965840;28;20051;-54
2021/12/30 05:57:32;;;;;;;3.97;1.80;;;;;;;13.03;79.96;99277.91;4964684;28;20051;-52
2021/12/30 05:59:59;;;;;;;3.45;1.00;;;;;;;13.01;79.78;99279.72;4967945;28;20051;-49
2021/12/30 06:02:25;;;;;;;3.83;1.15;;;;;;;13.04;80.22;99282.22;4968063;28;20054;-54
2021/12/30 06:04:52;;;;;;;3.58;0.77;;;;;;;13.01;79.46;99290.13;4969422;28;20055;-55
2021/12/30 06:07:19;;;;;;;4.13;1.08;;;;;;;12.97;80.43;99293.69;4972002;28;20151;-54
2021/12/30 06:09:46;;;;;;;3.45;0.93;;;;;;;12.97;80.18;99291.09;4971661;28;20458;-54
2021/12/30 06:12:12;;;;;;;4.75;0.70;;;;;;;12.94;79.92;99283.34;4966145;28;20050;-53
2021/12/30 06:14:39;;;;;;;3.97;1.05;;;;;;;12.95;80.22;99285.06;4968579;28;20647;-52
2021/12/30 06:17:05;;;;;;;4.15;0.80;;;;;;;12.90;80.15;99282.56;4969034;28;20051;-55
2021/12/30 06:19:32;;;;;;;4.43;1.05;;;;;;;12.92;80.16;99279.94;4970772;28;20054;-52
2021/12/30 06:21:59;;;;;;;3.20;1.08;;;;;;;12.91;79.63;99288.63;4966242;28;20070;-58
2021/12/30 06:24:25;;;;;;;2.65;1.15;;;;;;;12.90;80.07;99281.72;4970891;28;20047;-53
2021/12/30 06:26:52;;;;;;;4.20;0.90;;;;;;;12.88;79.62;99297.34;4965994;28;20051;-52
2021/12/30 06:29:18;;;;;;;7.00;0.68;;;;;;;12.88;80.37;99304.28;4969421;28;20042;-51
2021/12/30 06:31:46;;;;;;;5.88;1.35;;;;;;;12.89;79.46;99300.78;4971798;28;20043;-49
2021/12/30 06:34:12;;;;;;;7.88;1.80;;;;;;;12.88;80.20;99299.94;4968820;28;20058;-53
2021/12/30 06:36:40;;;;;;;5.43;0.77;;;;;;;12.90;79.25;99303.34;4967759;28;20092;-51
2021/12/30 06:39:06;;;;;;;6.20;1.10;;;;;;;12.90;80.21;99312.91;4967676;28;20047;-51
2021/12/30 06:41:33;;;;;;;4.85;0.98;;;;;;;12.93;80.38;99307.63;4966272;28;20078;-53
2021/12/30 06:43:59;;;;;;;5.03;0.88;;;;;;;12.94;80.27;99301.56;4969403;28;20059;-53
2021/12/30 06:46:26;;;;;;;4.25;0.88;;;;;;;12.97;79.37;99319.69;4966144;28;20069;-52
2021/12/30 06:48:54;;;;;;;5.43;0.45;;;;;;;12.95;79.14;99326.66;4966213;28;20042;-56
2021/12/30 06:51:23;;;;;;;5.03;1.02;;;;;;;13.01;79.69;99331.72;4964566;28;20093;-57
2021/12/30 06:53:54;;;;;;;4.65;1.42;;;;;;;12.99;80.25;99333.47;4964282;28;20046;-53
2021/12/30 06:56:22;;;;;;;4.10;1.23;;;;;;;13.02;80.50;99349.00;4965807;28;20057;-58
2021/12/30 06:58:49;;;;;;;2.83;0.93;;;;;;;13.01;79.49;99336.91;4966749;28;20101;-55
2021/12/30 07:01:16;;;;;;;2.83;1.00;;;;;;;13.04;78.99;99351.56;4967173;28;20453;-55
2021/12/30 07:03:42;;;;;;;5.22;2.03;;;;;;;13.05;79.01;99355.88;4963756;28;20042;-50
2021/12/30 07:06:09;;;;;;;2.78;1.05;;;;;;;13.05;79.16;99364.53;4967078;28;20121;-55
2021/12/30 07:08:36;;;;;;;3.13;0.68;;;;;;;13.05;79.14;99361.94;4966764;28;20052;-55
2021/12/30 07:11:03;;;;;;;4.72;1.48;;;;;;;13.06;79.12;99371.44;4966689;28;20453;-54
2021/12/30 07:13:29;;;;;;;5.78;2.00;;;;;;;13.07;79.79;99357.53;4967473;28;20109;-56
2021/12/30 07:15:57;;;;;;;10.88;3.20;;;;;;;13.11;79.30;99374.75;4964648;28;20047;-56
2021/12/30 07:18:23;;;;;;;9.57;2.88;;;;;;;13.10;79.33;99367.88;4968070;28;20047;-57
2021/12/30 07:20:50;;;;;;;9.73;2.58;;;;;;;13.09;79.84;99371.38;4967603;28;20058;-52
2021/12/30 07:23:16;;;;;;;11.57;3.13;;;;;;;13.11;79.80;99371.31;4965204;28;20051;-55
2021/12/30 07:25:43;;;;;;;11.10;2.72;;;;;;;13.12;79.28;99380.84;4970447;28;20047;-54
2021/12/30 07:28:10;;;;;;;7.72;1.65;;;;;;;13.09;79.99;99376.56;4969779;28;20097;-55
2021/12/30 07:30:37;;;;;;;4.82;1.35;;;;;;;13.09;80.27;99383.50;4964741;28;20035;-51
2021/12/30 07:33:06;;;;;;;6.32;1.10;;;;;;;13.07;79.24;99391.34;4967502;28;20627;-55
2021/12/30 07:35:37;;;;;;;4.75;0.88;;;;;;;13.08;78.73;99389.59;4964097;28;20047;-54
2021/12/30 07:38:04;;;;;;;3.22;0.98;;;;;;;13.07;79.60;99404.31;4966125;28;20059;-56
2021/12/30 07:40:32;;;;;;;5.80;1.48;;;;;;;13.07;80.10;99398.28;4968141;28;20054;-52
2021/12/30 07:42:59;;;;;;;4.25;0.77;;;;;;;13.06;79.49;99405.22;4968958;28;20056;-55
2021/12/30 07:45:25;;;;;;;4.47;1.27;;;;;;;13.07;80.08;99409.53;4963631;28;20043;-53
2021/12/30 07:47:53;;;;;;;3.63;0.77;;;;;;;13.05;79.96;99432.13;4967983;28;20051;-51
2021/12/30 07:50:22;;;;;;;3.00;1.02;;;;;;;13.03;78.74;99439.09;4967331;28;20047;-56
2021/12/30 07:52:49;;;;;;;5.03;0.85;;;;;;;13.07;79.52;99440.72;4965816;28;20112;-52
2021/12/30 07:55:16;;;;;;;5.45;1.15;;;;;;;13.08;79.84;99437.22;4964567;28;20093;-51
2021/12/30 07:57:43;;;;;;;7.30;1.30;;;;;;;13.07;78.77;99445.94;4964305;28;20055;-57
2021/12/30 08:00:14;;;;;;;4.78;1.23;;;;;;;13.04;79.57;99446.00;4960311;28;20054;-56
2021/12/30 08:02:42;;;;;;;6.53;0.90;;;;;;;13.09;79.27;99443.28;4967376;28;20050;-55
2021/12/30 08:05:12;;;;;;;2.97;1.23;;;;;;;13.05;79.07;99437.31;4966893;28;20438;-53
2021/12/30 08:07:38;;;;;;;4.97;1.25;;;;;;;13.06;78.74;99444.22;4962947;28;20054;-55
2021/12/30 08:10:10;;;;;;;3.83;1.15;;;;;;;13.06;79.32;99446.81;4972757;28;20047;-54
2021/12/30 08:12:38;;;;;;;5.28;1.33;;;;;;;13.08;80.01;99452.81;4962691;28;20043;-50
2021/12/30 08:15:06;;;;;;;4.32;1.42;;;;;;;13.07;79.71;99448.53;4965782;28;20101;-56
2021/12/30 08:17:34;;;;;;;4.05;0.90;;;;;;;13.04;79.74;99456.38;4967122;28;20046;-57
2021/12/30 08:20:01;;;;;;;4.93;1.10;;;;;;;13.05;79.97;99454.66;4967803;28;20043;-51
2021/12/30 08:22:27;;;;;;;3.25;0.98;;;;;;;13.06;79.40;99457.22;4962369;28;20448;-56
2021/12/30 08:24:54;;;;;;;5.53;1.25;;;;;;;13.08;79.98;99467.59;4967425;28;20134;-56
2021/12/30 08:27:21;;;;;;;4.65;0.75;;;;;;;13.07;79.99;99469.31;4960967;28;20055;-55
2021/12/30 08:29:48;;;;;;;5.95;1.33;;;;;;;13.06;79.65;99475.41;4968147;28;20042;-51
2021/12/30 08:32:16;;;;;;;6.72;1.05;;;;;;;13.07;79.07;99482.31;4965426;28;20051;-53
2021/12/30 08:34:44;;;;;;;6.18;1.27;;;;;;;13.07;79.51;99491.88;4967925;28;20113;-53
2021/12/30 08:37:12;;;;;;;7.43;1.33;;;;;;;13.09;80.25;99490.97;4966912;28;20101;-50
2021/12/30 08:39:40;;;;;;;5.28;1.38;;;;;;;13.10;79.77;99502.19;4962031;28;20781;-55
2021/12/30 08:42:18;;;;;;;7.72;1.13;;;;;;;13.09;80.19;99506.56;4954085;28;20094;-50
2021/12/30 08:44:45;;;;;;;3.80;0.75;;;;;;;13.13;80.07;99517.72;4957243;28;20121;-53
2021/12/30 08:47:12;;;;;;;5.03;1.27;;;;;;;13.15;80.08;99520.31;4962633;28;20099;-59
2021/12/30 08:49:41;;;;;;;7.38;1.60;;;;;;;13.14;79.94;99518.59;4964661;28;20526;-51
2021/12/30 08:52:09;;;;;;;6.07;1.40;;;;;;;13.18;79.67;99522.84;4965550;28;20534;-56
2021/12/30 08:54:36;;;;;;;4.35;0.90;;;;;;;13.18;80.38;99521.09;4967082;28;20046;-52
2021/12/30 08:57:03;;;;;;;5.85;0.80;;;;;;;13.21;80.53;99514.97;4964549;28;20102;-52
2021/12/30 08:59:30;;;;;;;3.80;1.15;;;;;;;13.23;79.61;99528.78;4965036;28;20117;-56
2021/12/30 09:01:57;;;;;;;5.25;0.93;;;;;;;13.23;80.16;99531.38;4967580;28;20460;-52
2021/12/30 09:04:26;;;;;;;6.30;1.35;;;;;;;13.22;80.74;99533.16;4964887;28;20049;-51
2021/12/30 09:06:53;;;;;;;4.43;1.15;;;;;;;13.24;79.31;99536.56;4966526;28;20054;-50
2021/12/30 09:09:22;;;;;;;4.78;1.50;;;;;;;13.26;80.47;99523.53;4966316;28;20125;-56
2021/12/30 09:11:50;;;;;;;4.00;0.73;;;;;;;13.25;80.31;99527.03;4966605;28;20402;-55
2021/12/30 09:14:16;;;;;;;3.08;0.68;;;;;;;13.26;80.46;99523.53;4964608;28;20054;-56
2021/12/30 09:16:43;;;;;;;3.03;1.13;;;;;;;13.29;80.39;99536.47;4965827;28;20877;-58
2021/12/30 09:19:10;;;;;;;2.20;0.70;;;;;;;13.30;79.84;99539.91;4961924;28;20074;-56
2021/12/30 09:21:38;;;;;;;2.17;0.50;;;;;;;13.29;80.47;99528.66;4966796;28;20097;-50
2021/12/30 09:24:07;;;;;;;2.25;1.10;;;;;;;13.35;80.01;99538.91;4967759;28;20093;-54
2021/12/30 09:26:34;;;;;;;1.55;0.55;;;;;;;13.36;79.89;99529.38;4968483;28;20050;-51
2021/12/30 09:29:01;;;;;;;1.40;0.38;;;;;;;13.36;80.17;99530.25;4972839;28;20093;-52
2021/12/30 09:31:28;;;;;;;1.50;0.68;;;;;;;13.37;79.46;99526.75;4967303;28;20078;-59
2021/12/30 09:33:57;;;;;;;0.68;0.40;;;;;;;13.35;79.90;99538.91;4967175;28;20079;-56
2021/12/30 09:36:26;;;;;;;1.45;0.47;;;;;;;13.37;80.06;99541.47;4964540;28;20113;-52
2021/12/30 09:38:53;;;;;;;0.68;0.63;;;;;;;13.39;79.94;99531.03;4970625;28;20047;-54
2021/12/30 09:41:19;;;;;;;1.70;0.47;;;;;;;13.40;80.45;99540.56;4968111;28;20117;-55
2021/12/30 09:43:46;;;;;;;0.68;0.35;;;;;;;13.40;80.20;99545.78;4964371;28;20051;-51
2021/12/30 09:46:14;;;;;;;0.65;0.65;;;;;;;13.37;80.34;99537.13;4964727;28;20082;-51
2021/12/30 09:48:41;;;;;;;0.80;0.80;;;;;;;13.36;80.66;99535.44;4960998;28;20051;-53
2021/12/30 09:51:08;;;;;;;0.75;0.75;;;;;;;13.37;80.61;99547.53;4968492;28;20055;-51
2021/12/30 09:53:35;;;;;;;0.20;0.20;;;;;;;13.36;80.21;99561.44;4961158;28;20043;-58
2021/12/30 09:56:02;;;;;;;0.30;0.28;;;;;;;13.33;80.88;99564.09;4968837;28;20059;-52
2021/12/30 09:58:29;;;;;;;0.50;0.50;;;;;;;13.33;80.35;99566.72;4964655;28;20125;-53
2021/12/30 10:00:57;;;;;;;0.20;0.20;;;;;;;13.32;80.53;99572.81;4962791;28;20144;-52
2021/12/30 10:03:24;;;;;;;1.25;0.20;;;;;;;13.34;80.38;99567.59;4964437;28;20057;-53
2021/12/30 10:05:51;;;;;;;0.40;0.20;;;;;;;13.34;81.28;99568.41;4968616;28;20055;-56
2021/12/30 10:08:24;;;;;;;1.10;1.02;;;;;;;13.33;81.82;99566.72;4958885;28;20059;-52
2021/12/30 10:10:55;;;;;;;1.25;0.45;;;;;;;13.35;81.10;99575.31;4966641;28;20061;-56
2021/12/30 10:13:29;;;;;;;0.40;0.40;;;;;;;13.31;81.07;99568.47;4965871;28;20144;-56
2021/12/30 10:15:58;;;;;;;0.35;0.35;;;;;;;13.33;81.35;99581.44;4964067;28;20046;-54
2021/12/30 10:18:43;;;;;;;0.47;0.32;;;;;;;13.30;81.16;99581.50;4964926;28;20054;-53
2021/12/30 10:21:31;;;;;;;1.17;0.65;;;;;;;13.32;81.34;99580.63;4970965;28;20039;-52
2021/12/30 10:24:01;;;;;;;0.68;0.30;;;;;;;13.37;81.10;99581.38;4964045;28;20047;-53
2021/12/30 10:26:28;;;;;;;0.47;0.30;;;;;;;13.37;81.50;99573.56;4970021;28;20557;-51
2021/12/30 10:28:57;;;;;;;1.30;0.38;;;;;;;13.42;81.52;99577.81;4967599;28;20059;-53
2021/12/30 10:31:29;;;;;;;1.33;0.57;;;;;;;13.44;80.48;99573.44;4963626;28;20067;-53
2021/12/30 10:34:06;;;;;;;0.40;0.35;;;;;;;13.42;80.82;99577.81;4965660;28;20047;-56
2021/12/30 10:36:36;;;;;;;1.75;0.68;;;;;;;13.39;81.52;99580.47;4959625;28;20051;-51
2021/12/30 10:39:24;;;;;;;5.15;0.32;;;;;;;13.37;81.48;99578.75;4964469;28;20093;-50
2021/12/30 10:42:16;;;;;;;0.82;0.47;;;;;;;13.40;80.80;99587.41;4963587;28;20138;-53
2021/12/30 10:44:50;;;;;;;0.65;0.30;;;;;;;13.46;81.72;99597.66;4960194;28;20063;-55
2021/12/30 10:47:18;;;;;;;0.85;0.45;;;;;;;13.49;81.53;99587.22;4964590;28;20133;-55
2021/12/30 10:49:57;;;;;;;1.10;0.38;;;;;;;13.54;81.22;99595.75;4967411;28;20093;-56
2021/12/30 10:52:25;;;;;;;0.80;0.52;;;;;;;13.58;81.41;99594.81;4964880;28;20082;-52
2021/12/30 10:54:52;;;;;;;1.00;0.65;;;;;;;13.59;81.02;99593.94;4967001;28;20102;-56
2021/12/30 10:57:19;;;;;;;0.65;0.30;;;;;;;13.66;81.68;99598.97;4961343;28;20078;-56
2021/12/30 10:59:49;;;;;;;1.67;0.52;;;;;;;13.77;81.36;99591.78;4963184;28;20616;-57
2021/12/30 11:02:18;;;;;;;0.80;0.55;;;;;;;13.79;80.95;99595.22;4969289;28;20054;-55
2021/12/30 11:04:56;;;;;;;3.13;0.22;;;;;;;13.82;80.52;99597.72;4965707;28;20078;-54
2021/12/30 11:07:27;;;;;;;0.95;0.40;;;;;;;13.82;80.64;99594.28;4959838;28;20086;-54
2021/12/30 11:09:58;;;;;;;0.98;0.47;;;;;;;13.81;81.06;99596.03;4962712;28;20584;-55
2021/12/30 11:12:29;;;;;;;1.33;0.55;;;;;;;13.78;80.25;99593.47;4960208;28;20054;-56
2021/12/30 11:14:57;;;;;;;0.55;0.40;;;;;;;13.74;80.79;99592.72;4962740;28;20122;-50
2021/12/30 11:17:33;;;;;;;0.85;0.85;;;;;;;13.76;80.80;99600.50;4961331;28;20050;-56
2021/12/30 11:20:06;;;;;;;1.20;0.30;;;;;;;13.71;81.15;99605.78;4963062;28;20118;-56
2021/12/30 11:22:35;;;;;;;0.50;0.30;;;;;;;13.71;80.83;99595.38;4962599;28;20055;-53
2021/12/30 11:25:05;;;;;;;0.80;0.73;;;;;;;13.72;80.06;99609.25;4960434;28;20062;-54
2021/12/30 11:27:33;;;;;;;0.40;0.40;;;;;;;13.70;80.06;99600.63;4966140;28;20055;-54
2021/12/30 11:30:05;;;;;;;1.48;0.68;;;;;;;13.69;80.92;99594.59;4957431;28;20122;-54
2021/12/30 11:32:34;;;;;;;1.05;0.57;;;;;;;13.70;80.11;99595.41;4963694;28;20581;-52
2021/12/30 11:35:03;;;;;;;0.95;0.93;;;;;;;13.66;81.33;99601.59;4962884;28;20102;-55
2021/12/30 11:37:30;;;;;;;2.30;0.77;;;;;;;13.71;80.48;99602.34;4967151;28;20134;-54
2021/12/30 11:40:00;;;;;;;1.52;0.80;;;;;;;13.70;80.75;99606.69;4964924;28;20782;-53